Portada
METAR-TAF:

METAR-TAF

Aeroports :

Chiang Rai, Tailàndia

latitud: 19-57-08N, longitud: 099-52-59E, altitud: 390 m

Observació

L'informe es va fer fa 22 minuts, a les 15:00 UTC
Vent 4 kt del Sud-Oest
Temperatura 26°C
Humitat 100%
Pressió 1010 hPa
Visibilitat 10 km o més
Núvols disperses a una alçada de 2800 ft
pluja

METAR: VTCT 251500Z 23004KT 9999 -RA SCT028 26/26 Q1010 NOSIG

Hora: 22:22 (15:22 UTC)

Pronòstic

L'informe es va fer fa 4 hores i 22 minuts, a les 11:00 UTC
Pronòstic vàlid del 25 a les 12 UTC al 26 a les 18 UTC
Vent 5 kt del Oest
Visibilitat 10 km o més
Núvols disperses a una alçada de 2500 ft

TAF: VTCT 251100Z 2512/2618 26005KT 9999 SCT025

Observacions i pronòstics meteorològics de més de 4000 aeroports (METAR i TAF).

Les estacions disponibles són els punts grocs i vermells al mapa.

Posi el ratolí al punt desitjat per veure el nom de l'estació.

Feu clic per veure les observacions i els pronòstics meteorològics.

Per canviar el mapa: feu clic els botons verds amb una creu de color negre per apropar; al botó verd amb un guió per allunyar la imatge; o en les fletxes verdes per a mapes adjacents.


METAR-TAF: